메인 페이지
METAR-TAF:

METAR-TAF

공항 :

Dutchess County Airport

Poughkeepsie, 뉴욕, 미국

위도: 41-37-36N, 경도: 073-53-03W, 고도: 50m

현재 날씨관측

예보는 18분 전, 08:38시(UTC)에 발표되었습니다.
무풍
온도 15°C
습도 94%
기압 1008 hPa
시정: 2.8km
맑음
박무

METAR: KPOU 040838Z AUTO 00000KT 1 3/4SM BR CLR 15/14 A2976 RMK AO2 T01500144

시각: 04:56 (08:56 UTC)

예보

예보는 2 시간 48분 전, 06:08시(UTC)에 발표되었습니다.
예보 대상 시간: 04일 06시부터 05일 06시까지 (UTC)
여러 방향의 바람 3kt
시정: 9.7km
고도 8000ft 상공 구름 보통
박무
일시적
04일 06시부터 04일 10시까지 (UTC)
시정: 2.4km
고도 300ft 상공 구름 많음
박무
04일 1400시부터 (UTC)
서남서7kt
시정: 10km
고도 6000ft 상공 구름 조금
고도 25000ft 상공 구름 보통
05일 0000시부터 (UTC)
여러 방향의 바람 3kt
시정: 10km
고도 7000ft 상공 구름 많음
확률 30%
05일 02시부터 05일 06시까지 (UTC)
시정: 1.6km
고도 4000ft 상공 흐림
약한소나기, 박무

TAF: KPOU 040608Z 0406/0506 VRB03KT 6SM BR SCT080 TEMPO 0406/0410 1 1/2SM BR BKN003 FM041400 24007KT P6SM FEW060 SCT250 FM050000 VRB03KT P6SM BKN070 PROB30 0502/0506 4SM -SHRA BR OVC040

4,000개 이상의 공항 관측 자료 및 예보 (METAR 및 TAF 보고).

지도상에서 검색 가능한 기상관측소가 노란 점과 빨간 점으로 표시되어 있습니다.

기상관측소 명을 보려면 표시 위로 마우스를 이동하세요.

날씨 관측과 예보를 보려면 클릭하세요.

지도 변경 : 확대하려면 엑스 표시가 있는 녹색 버튼, 축소하려면 빼기 표시가 있는 녹색 버튼, 다음 페이지의 지도를 보려면 녹색 화살표를 클릭하세요.


METAR-TAF: